Louiseville, Canada
Current Conditions -  °F | °C
As of 8:00 PM on Saturday 20 Dec 2014 (Local Time) from CYRQ Reporting Station
Haze Haze  
Wind Chill:   Ceiling: Unl
Heat Index:   Visibility: 6mi
Dew Point:   Wind: 2mph
Humidity: 85%   Direction: 40°NE
Pressure: 30.36"   Gusts: NA
Location:  46.25°N, 72.93°W
Report Text: CYRQ 210100Z AUTO 04002KT 6SM BR CLR M15/M17 A3036 RMK SLP285
Loading
Personal Weather Stations






























Interactive Weather Map New forecast layout! Learn more

10-Day Weather Forecast

Advertisements
Track Severe Weather on mobile